sensor_id;sensor_type;location;lat;lon;timestamp;pressure;altitude;pressure_sealevel;temperature;humidity
21588;BME280;10956;48.878;13.316;2022-12-20T00:01:46;94924.50;;;-0.03;100.00
21588;BME280;10956;48.878;13.316;2022-12-20T00:04:12;94930.50;;;-0.03;100.00
21588;BME280;10956;48.878;13.316;2022-12-20T00:06:37;94922.53;;;-0.01;100.00
21588;BME280;10956;48.878;13.316;2022-12-20T00:09:05;94923.78;;;0.03;100.00
21588;BME280;10956;48.878;13.316;2022-12-20T00:11:31;94919.41;;;0.04;100.00
21588;BME280;10956;48.878;13.316;2022-12-20T00:13:57;94920.63;;;0.08;100.00
21588;BME280;10956;48.878;13.316;2022-12-20T00:16:25;94916.25;;;0.08;100.00
21588;BME280;10956;48.878;13.316;2022-12-20T00:19:02;94922.78;;;0.04;100.00
21588;BME280;10956;48.878;13.316;2022-12-20T00:21:28;94930.94;;;0.01;100.00
21588;BME280;10956;48.878;13.316;2022-12-20T00:23:54;94921.72;;;-0.02;100.00
21588;BME280;10956;48.878;13.316;2022-12-20T00:26:22;94920.94;;;-0.02;100.00
21588;BME280;10956;48.878;13.316;2022-12-20T00:28:48;94920.56;;;0.01;100.00
21588;BME280;10956;48.878;13.316;2022-12-20T00:31:16;94917.00;;;0.02;100.00
21588;BME280;10956;48.878;13.316;2022-12-20T00:33:45;94924.56;;;0.04;100.00
21588;BME280;10956;48.878;13.316;2022-12-20T00:36:12;94924.56;;;0.04;100.00
21588;BME280;10956;48.878;13.316;2022-12-20T00:38:37;94919.31;;;-0.03;100.00
21588;BME280;10956;48.878;13.316;2022-12-20T00:41:07;94918.53;;;-0.04;100.00
21588;BME280;10956;48.878;13.316;2022-12-20T00:43:33;94914.31;;;-0.05;100.00
21588;BME280;10956;48.878;13.316;2022-12-20T00:45:59;94918.69;;;-0.05;100.00
21588;BME280;10956;48.878;13.316;2022-12-20T00:48:25;94914.88;;;-0.09;100.00
21588;BME280;10956;48.878;13.316;2022-12-20T00:50:51;94917.66;;;-0.11;100.00
21588;BME280;10956;48.878;13.316;2022-12-20T00:53:17;94910.06;;;-0.12;100.00
21588;BME280;10956;48.878;13.316;2022-12-20T00:55:44;94917.66;;;-0.11;100.00
21588;BME280;10956;48.878;13.316;2022-12-20T00:58:11;94908.09;;;-0.10;100.00
21588;BME280;10956;48.878;13.316;2022-12-20T01:00:37;94912.28;;;-0.09;100.00
21588;BME280;10956;48.878;13.316;2022-12-20T01:03:03;94918.34;;;-0.02;100.00
21588;BME280;10956;48.878;13.316;2022-12-20T01:05:29;94919.94;;;-0.01;100.00
21588;BME280;10956;48.878;13.316;2022-12-20T01:07:55;94926.13;;;-0.02;100.00
21588;BME280;10956;48.878;13.316;2022-12-20T01:10:20;94923.69;;;-0.04;100.00
21588;BME280;10956;48.878;13.316;2022-12-20T01:12:45;94921.28;;;-0.05;100.00
21588;BME280;10956;48.878;13.316;2022-12-20T01:15:11;94918.53;;;-0.04;100.00
21588;BME280;10956;48.878;13.316;2022-12-20T01:17:36;94918.97;;;0.00;100.00
21588;BME280;10956;48.878;13.316;2022-12-20T01:20:03;94919.56;;;0.02;100.00
21588;BME280;10956;48.878;13.316;2022-12-20T01:22:29;94913.41;;;0.03;100.00
21588;BME280;10956;48.878;13.316;2022-12-20T01:24:54;94911.06;;;0.08;100.00
21588;BME280;10956;48.878;13.316;2022-12-20T01:27:20;94904.28;;;0.07;100.00
21588;BME280;10956;48.878;13.316;2022-12-20T01:29:45;94904.66;;;0.04;100.00
21588;BME280;10956;48.878;13.316;2022-12-20T01:32:11;94915.81;;;0.05;100.00
21588;BME280;10956;48.878;13.316;2022-12-20T01:34:36;94917.34;;;-0.01;100.00
21588;BME280;10956;48.878;13.316;2022-12-20T01:37:01;94915.25;;;-0.12;100.00
21588;BME280;10956;48.878;13.316;2022-12-20T01:39:27;94909.06;;;-0.11;100.00
21588;BME280;10956;48.878;13.316;2022-12-20T01:41:52;94914.88;;;-0.09;100.00
21588;BME280;10956;48.878;13.316;2022-12-20T01:46:45;94906.72;;;-0.06;100.00
21588;BME280;10956;48.878;13.316;2022-12-20T01:49:19;94898.22;;;0.00;100.00
21588;BME280;10956;48.878;13.316;2022-12-20T01:51:49;94900.63;;;0.02;100.00
21588;BME280;10956;48.878;13.316;2022-12-20T01:54:19;94901.06;;;0.05;100.00
21588;BME280;10956;48.878;13.316;2022-12-20T01:56:51;94902.31;;;0.09;100.00
21588;BME280;10956;48.878;13.316;2022-12-20T01:59:19;94906.06;;;0.07;100.00
21588;BME280;10956;48.878;13.316;2022-12-20T02:01:45;94903.66;;;0.05;100.00
21588;BME280;10956;48.878;13.316;2022-12-20T02:04:11;94893.91;;;0.07;100.00
21588;BME280;10956;48.878;13.316;2022-12-20T02:06:37;94903.47;;;0.07;100.00
21588;BME280;10956;48.878;13.316;2022-12-20T02:09:03;94895.72;;;0.07;100.00
21588;BME280;10956;48.878;13.316;2022-12-20T02:16:40;94879.03;;;-0.06;100.00
21588;BME280;10956;48.878;13.316;2022-12-20T02:27:48;94870.66;;;-0.08;100.00
21588;BME280;10956;48.878;13.316;2022-12-20T02:30:19;94875.25;;;-0.24;100.00
21588;BME280;10956;48.878;13.316;2022-12-20T02:32:56;94875.50;;;-0.19;100.00
21588;BME280;10956;48.878;13.316;2022-12-20T02:35:28;94876.06;;;-0.24;100.00
21588;BME280;10956;48.878;13.316;2022-12-20T02:37:56;94880.78;;;-0.27;100.00
21588;BME280;10956;48.878;13.316;2022-12-20T02:40:24;94866.50;;;-0.23;100.00
21588;BME280;10956;48.878;13.316;2022-12-20T02:42:55;94862.19;;;-0.16;100.00
21588;BME280;10956;48.878;13.316;2022-12-20T02:45:26;94853.06;;;-0.12;100.00
21588;BME280;10956;48.878;13.316;2022-12-20T02:48:22;94835.53;;;-0.10;100.00
21588;BME280;10956;48.878;13.316;2022-12-20T02:50:51;94836.53;;;-0.11;100.00
21588;BME280;10956;48.878;13.316;2022-12-20T02:53:18;94829.13;;;-0.14;100.00
21588;BME280;10956;48.878;13.316;2022-12-20T02:58:42;94840.53;;;-0.09;100.00
21588;BME280;10956;48.878;13.316;2022-12-20T03:01:16;94851.09;;;-0.10;100.00
21588;BME280;10956;48.878;13.316;2022-12-20T03:03:45;94843.50;;;-0.12;100.00
21588;BME280;10956;48.878;13.316;2022-12-20T03:06:10;94842.69;;;-0.12;100.00
21588;BME280;10956;48.878;13.316;2022-12-20T03:08:36;94842.69;;;-0.12;100.00
21588;BME280;10956;48.878;13.316;2022-12-20T03:11:01;94842.69;;;-0.12;100.00
21588;BME280;10956;48.878;13.316;2022-12-20T03:13:27;94844.31;;;-0.11;100.00
21588;BME280;10956;48.878;13.316;2022-12-20T03:15:52;94846.91;;;-0.11;100.00
21588;BME280;10956;48.878;13.316;2022-12-20T03:18:17;94844.31;;;-0.11;100.00
21588;BME280;10956;48.878;13.316;2022-12-20T03:20:43;94834.00;;;-0.05;100.00
21588;BME280;10956;48.878;13.316;2022-12-20T03:23:08;94838.38;;;-0.05;100.00
21588;BME280;10956;48.878;13.316;2022-12-20T03:25:34;94850.09;;;-0.09;100.00
21588;BME280;10956;48.878;13.316;2022-12-20T03:27:59;94864.41;;;-0.13;100.00
21588;BME280;10956;48.878;13.316;2022-12-20T03:30:25;94855.03;;;-0.14;100.00
21588;BME280;10956;48.878;13.316;2022-12-20T03:32:50;94838.88;;;-0.16;100.00
21588;BME280;10956;48.878;13.316;2022-12-20T03:35:16;94837.50;;;-0.12;100.00
21588;BME280;10956;48.878;13.316;2022-12-20T03:37:41;94852.69;;;-0.09;100.00
21588;BME280;10956;48.878;13.316;2022-12-20T03:40:07;94840.34;;;-0.07;100.00
21588;BME280;10956;48.878;13.316;2022-12-20T03:42:33;94841.97;;;-0.06;100.00
21588;BME280;10956;48.878;13.316;2022-12-20T03:44:59;94854.91;;;-0.06;100.00
21588;BME280;10956;48.878;13.316;2022-12-20T03:47:24;94869.66;;;-0.07;100.00
21588;BME280;10956;48.878;13.316;2022-12-20T03:49:50;94876.38;;;-0.12;100.00
21588;BME280;10956;48.878;13.316;2022-12-20T03:52:16;94873.41;;;-0.09;100.00
21588;BME280;10956;48.878;13.316;2022-12-20T03:54:42;94862.88;;;-0.08;100.00
21588;BME280;10956;48.878;13.316;2022-12-20T03:57:07;94839.75;;;-0.09;100.00
21588;BME280;10956;48.878;13.316;2022-12-20T03:59:33;94832.78;;;-0.09;100.00
21588;BME280;10956;48.878;13.316;2022-12-20T04:01:58;94846.78;;;-0.03;100.00
21588;BME280;10956;48.878;13.316;2022-12-20T04:04:23;94856.72;;;-0.07;100.00
21588;BME280;10956;48.878;13.316;2022-12-20T04:06:49;94840.09;;;-0.12;100.00
21588;BME280;10956;48.878;13.316;2022-12-20T04:09:14;94837.09;;;-0.16;100.00
21588;BME280;10956;48.878;13.316;2022-12-20T04:11:40;94851.81;;;-0.16;100.00
21588;BME280;10956;48.878;13.316;2022-12-20T04:14:05;94844.06;;;-0.16;100.00
21588;BME280;10956;48.878;13.316;2022-12-20T04:16:31;94839.84;;;-0.17;100.00
21588;BME280;10956;48.878;13.316;2022-12-20T04:18:57;94838.31;;;-0.12;100.00
21588;BME280;10956;48.878;13.316;2022-12-20T04:21:28;94834.38;;;-0.08;100.00
21588;BME280;10956;48.878;13.316;2022-12-20T04:23:54;94847.94;;;-0.06;100.00
21588;BME280;10956;48.878;13.316;2022-12-20T04:26:21;94854.31;;;-0.08;100.00
21588;BME280;10956;48.878;13.316;2022-12-20T04:28:46;94854.84;;;-0.13;100.00
21588;BME280;10956;48.878;13.316;2022-12-20T04:31:12;94838.31;;;-0.12;100.00
21588;BME280;10956;48.878;13.316;2022-12-20T04:33:38;94828.38;;;-0.08;100.00
21588;BME280;10956;48.878;13.316;2022-12-20T04:36:04;94832.78;;;-0.09;100.00
21588;BME280;10956;48.878;13.316;2022-12-20T04:38:29;94830.72;;;-0.13;100.00
21588;BME280;10956;48.878;13.316;2022-12-20T04:40:55;94821.34;;;-0.14;100.00
21588;BME280;10956;48.878;13.316;2022-12-20T04:43:22;94819.38;;;-0.12;100.00
21588;BME280;10956;48.878;13.316;2022-12-20T04:45:49;94828.31;;;-0.15;100.00
21588;BME280;10956;48.878;13.316;2022-12-20T04:48:15;94820.75;;;-0.16;100.00
21588;BME280;10956;48.878;13.316;2022-12-20T04:50:41;94819.13;;;-0.17;100.00
21588;BME280;10956;48.878;13.316;2022-12-20T04:53:09;94813.59;;;-0.14;100.00
21588;BME280;10956;48.878;13.316;2022-12-20T04:55:53;94812.47;;;-0.05;100.00
21588;BME280;10956;48.878;13.316;2022-12-20T04:58:19;94813.28;;;-0.05;100.00
21588;BME280;10956;48.878;13.316;2022-12-20T05:00:44;94819.50;;;-0.20;100.00
21588;BME280;10956;48.878;13.316;2022-12-20T05:03:09;94821.03;;;-0.26;100.00
21588;BME280;10956;48.878;13.316;2022-12-20T05:05:35;94821.47;;;-0.22;100.00
21588;BME280;10956;48.878;13.316;2022-12-20T05:08:00;94813.78;;;-0.16;100.00
21588;BME280;10956;48.878;13.316;2022-12-20T05:10:26;94813.66;;;-0.08;100.00
21588;BME280;10956;48.878;13.316;2022-12-20T05:12:51;94812.09;;;-0.02;100.00
21588;BME280;10956;48.878;13.316;2022-12-20T05:15:16;94814.69;;;-0.02;100.00
21588;BME280;10956;48.878;13.316;2022-12-20T05:17:42;94813.03;;;-0.10;100.00
21588;BME280;10956;48.878;13.316;2022-12-20T05:20:08;94808.91;;;-0.04;100.00
21588;BME280;10956;48.878;13.316;2022-12-20T05:22:33;94813.09;;;-0.03;100.00
21588;BME280;10956;48.878;13.316;2022-12-20T05:25:17;94825.69;;;0.00;100.00
21588;BME280;10956;48.878;13.316;2022-12-20T05:28:01;94820.31;;;0.02;100.00
21588;BME280;10956;48.878;13.316;2022-12-20T05:30:27;94819.75;;;0.06;100.00
21588;BME280;10956;48.878;13.316;2022-12-20T05:32:52;94817.78;;;0.08;100.00
21588;BME280;10956;48.878;13.316;2022-12-20T05:35:18;94817.41;;;0.11;100.00
21588;BME280;10956;48.878;13.316;2022-12-20T05:37:44;94824.44;;;0.17;100.00
21588;BME280;10956;48.878;13.316;2022-12-20T05:40:10;94810.31;;;0.20;100.00
21588;BME280;10956;48.878;13.316;2022-12-20T05:42:36;94820.72;;;0.26;100.00
21588;BME280;10956;48.878;13.316;2022-12-20T05:45:03;94822.34;;;0.27;100.00
21588;BME280;10956;48.878;13.316;2022-12-20T05:47:28;94815.53;;;0.26;100.00
21588;BME280;10956;48.878;13.316;2022-12-20T05:50:00;94817.16;;;0.27;100.00
21588;BME280;10956;48.878;13.316;2022-12-20T05:52:25;94819.75;;;0.27;100.00
21588;BME280;10956;48.878;13.316;2022-12-20T05:54:51;94817.16;;;0.27;100.00
21588;BME280;10956;48.878;13.316;2022-12-20T05:57:17;94816.97;;;0.29;100.00
21588;BME280;10956;48.878;13.316;2022-12-20T05:59:43;94811.59;;;0.30;100.00
21588;BME280;10956;48.878;13.316;2022-12-20T06:02:08;94803.19;;;0.28;100.00
21588;BME280;10956;48.878;13.316;2022-12-20T06:04:35;94794.56;;;0.21;100.00
21588;BME280;10956;48.878;13.316;2022-12-20T06:07:01;94796.72;;;0.18;100.00
21588;BME280;10956;48.878;13.316;2022-12-20T06:09:27;94794.31;;;0.16;100.00
21588;BME280;10956;48.878;13.316;2022-12-20T06:11:52;94801.50;;;0.14;100.00
21588;BME280;10956;48.878;13.316;2022-12-20T06:14:18;94796.31;;;0.14;100.00
21588;BME280;10956;48.878;13.316;2022-12-20T06:16:43;94792.28;;;0.12;100.00
21588;BME280;10956;48.878;13.316;2022-12-20T06:19:08;94781.25;;;0.03;100.00
21588;BME280;10956;48.878;13.316;2022-12-20T06:21:34;94789.53;;;-0.08;100.00
21588;BME280;10956;48.878;13.316;2022-12-20T06:23:59;94774.97;;;-0.09;100.00
21588;BME280;10956;48.878;13.316;2022-12-20T06:26:25;94781.75;;;-0.08;100.00
21588;BME280;10956;48.878;13.316;2022-12-20T06:28:51;94796.06;;;-0.12;100.00
21588;BME280;10956;48.878;13.316;2022-12-20T06:31:19;94795.44;;;-0.14;100.00
21588;BME280;10956;48.878;13.316;2022-12-20T06:33:44;94790.09;;;-0.13;100.00
21588;BME280;10956;48.878;13.316;2022-12-20T06:36:10;94777.31;;;-0.14;100.00
21588;BME280;10956;48.878;13.316;2022-12-20T06:38:35;94778.91;;;-0.13;100.00
21588;BME280;10956;48.878;13.316;2022-12-20T06:41:01;94773.75;;;-0.13;100.00
21588;BME280;10956;48.878;13.316;2022-12-20T06:43:26;94776.81;;;-0.24;100.00
21588;BME280;10956;48.878;13.316;2022-12-20T06:45:52;94764.91;;;-0.19;100.00
21588;BME280;10956;48.878;13.316;2022-12-20T06:48:17;94771.53;;;-0.16;100.00
21588;BME280;10956;48.878;13.316;2022-12-20T06:50:47;94775.72;;;-0.15;100.00
21588;BME280;10956;48.878;13.316;2022-12-20T06:53:12;94777.69;;;-0.17;100.00
21588;BME280;10956;48.878;13.316;2022-12-20T06:55:38;94772.50;;;-0.17;100.00
21588;BME280;10956;48.878;13.316;2022-12-20T06:58:03;94765.09;;;-0.20;100.00
21588;BME280;10956;48.878;13.316;2022-12-20T07:00:29;94773.25;;;-0.23;100.00
21588;BME280;10956;48.878;13.316;2022-12-20T07:02:55;94776.44;;;-0.21;100.00
21588;BME280;10956;48.878;13.316;2022-12-20T07:05:20;94769.31;;;-0.19;100.00
21588;BME280;10956;48.878;13.316;2022-12-20T07:07:45;94770.91;;;-0.18;100.00
21588;BME280;10956;48.878;13.316;2022-12-20T07:10:11;94770.53;;;-0.15;100.00
21588;BME280;10956;48.878;13.316;2022-12-20T07:12:36;94775.53;;;-0.14;100.00
21588;BME280;10956;48.878;13.316;2022-12-20T07:15:02;94773.38;;;-0.10;100.00
21588;BME280;10956;48.878;13.316;2022-12-20T07:17:27;94776.19;;;-0.05;100.00
21588;BME280;10956;48.878;13.316;2022-12-20T07:19:53;94784.97;;;-0.06;100.00
21588;BME280;10956;48.878;13.316;2022-12-20T07:22:18;94787.19;;;-0.03;100.00
21588;BME280;10956;48.878;13.316;2022-12-20T07:24:44;94787.44;;;0.02;100.00
21588;BME280;10956;48.878;13.316;2022-12-20T07:27:10;94779.09;;;0.07;100.00
21588;BME280;10956;48.878;13.316;2022-12-20T07:29:35;94772.75;;;0.09;100.00
21588;BME280;10956;48.878;13.316;2022-12-20T07:32:04;94782.34;;;0.15;100.00
21588;BME280;10956;48.878;13.316;2022-12-20T07:34:30;94788.53;;;0.14;100.00
21588;BME280;10956;48.878;13.316;2022-12-20T07:36:55;94781.13;;;0.11;100.00
21588;BME280;10956;48.878;13.316;2022-12-20T07:39:21;94782.53;;;0.14;100.00
21588;BME280;10956;48.878;13.316;2022-12-20T07:41:46;94777.97;;;0.16;100.00
21588;BME280;10956;48.878;13.316;2022-12-20T07:44:11;94776.78;;;0.18;100.00
21588;BME280;10956;48.878;13.316;2022-12-20T07:46:37;94782.03;;;0.25;100.00
21588;BME280;10956;48.878;13.316;2022-12-20T07:49:03;94780.09;;;0.34;100.00
21588;BME280;10956;48.878;13.316;2022-12-20T07:51:34;94778.38;;;0.41;100.00
21588;BME280;10956;48.878;13.316;2022-12-20T07:54:17;94780.25;;;0.53;100.00
21588;BME280;10956;48.878;13.316;2022-12-20T07:56:50;94784.28;;;0.62;100.00
21588;BME280;10956;48.878;13.316;2022-12-20T07:59:20;94780.13;;;0.68;100.00
21588;BME280;10956;48.878;13.316;2022-12-20T08:01:49;94778.19;;;0.77;100.00
21588;BME280;10956;48.878;13.316;2022-12-20T08:04:19;94782.00;;;0.81;100.00
21588;BME280;10956;48.878;13.316;2022-12-20T08:06:45;94770.06;;;0.86;100.00
21588;BME280;10956;48.878;13.316;2022-12-20T08:09:13;94777.66;;;0.88;100.00
21588;BME280;10956;48.878;13.316;2022-12-20T08:11:41;94774.91;;;0.96;100.00
21588;BME280;10956;48.878;13.316;2022-12-20T08:14:08;94764.56;;;1.03;100.00
21588;BME280;10956;48.878;13.316;2022-12-20T08:16:34;94774.97;;;1.09;100.00
21588;BME280;10956;48.878;13.316;2022-12-20T08:18:59;94761.19;;;1.09;100.00
21588;BME280;10956;48.878;13.316;2022-12-20T08:21:25;94764.78;;;1.08;100.00
21588;BME280;10956;48.878;13.316;2022-12-20T08:23:50;94767.97;;;1.10;100.00
21588;BME280;10956;48.878;13.316;2022-12-20T08:26:16;94763.03;;;1.15;100.00
21588;BME280;10956;48.878;13.316;2022-12-20T08:28:42;94760.63;;;1.20;100.00
21588;BME280;10956;48.878;13.316;2022-12-20T08:31:08;94758.25;;;1.25;100.00
21588;BME280;10956;48.878;13.316;2022-12-20T08:33:35;94754.66;;;1.26;100.00
21588;BME280;10956;48.878;13.316;2022-12-20T08:36:04;94747.28;;;1.23;100.00
21588;BME280;10956;48.878;13.316;2022-12-20T08:38:31;94755.44;;;1.20;100.00
21588;BME280;10956;48.878;13.316;2022-12-20T08:43:32;94762.25;;;1.21;100.00
21588;BME280;10956;48.878;13.316;2022-12-20T08:45:59;94761.47;;;1.27;100.00
21588;BME280;10956;48.878;13.316;2022-12-20T08:48:25;94751.09;;;1.27;100.00
21588;BME280;10956;48.878;13.316;2022-12-20T08:51:00;94749.25;;;1.14;100.00
21588;BME280;10956;48.878;13.316;2022-12-20T08:53:26;94749.63;;;1.11;100.00
21588;BME280;10956;48.878;13.316;2022-12-20T08:55:51;94752.25;;;1.18;100.00
21588;BME280;10956;48.878;13.316;2022-12-20T08:58:17;94744.72;;;1.36;100.00
21588;BME280;10956;48.878;13.316;2022-12-20T09:00:43;94761.75;;;1.58;100.00
21588;BME280;10956;48.878;13.316;2022-12-20T09:03:09;94744.81;;;1.76;100.00
21588;BME280;10956;48.878;13.316;2022-12-20T09:05:36;94739.44;;;1.90;100.00
21588;BME280;10956;48.878;13.316;2022-12-20T09:08:07;94742.44;;;2.01;100.00
21588;BME280;10956;48.878;13.316;2022-12-20T09:10:32;94724.25;;;2.07;100.00
21588;BME280;10956;48.878;13.316;2022-12-20T09:12:57;94727.63;;;2.14;100.00
21588;BME280;10956;48.878;13.316;2022-12-20T09:15:23;94711.84;;;2.22;100.00
21588;BME280;10956;48.878;13.316;2022-12-20T09:17:50;94722.25;;;2.22;100.00
21588;BME280;10956;48.878;13.316;2022-12-20T09:20:15;94722.84;;;2.31;100.00
21588;BME280;10956;48.878;13.316;2022-12-20T09:22:40;94717.41;;;2.46;100.00
21588;BME280;10956;48.878;13.316;2022-12-20T09:25:06;94715.19;;;2.56;100.00
21588;BME280;10956;48.878;13.316;2022-12-20T09:27:31;94716.78;;;2.64;100.00
21588;BME280;10956;48.878;13.316;2022-12-20T09:29:57;94713.56;;;2.68;100.00
21588;BME280;10956;48.878;13.316;2022-12-20T09:32:22;94710.75;;;2.76;100.00
21588;BME280;10956;48.878;13.316;2022-12-20T09:34:48;94707.91;;;2.84;100.00
21588;BME280;10956;48.878;13.316;2022-12-20T09:37:13;94707.88;;;2.98;100.00
21588;BME280;10956;48.878;13.316;2022-12-20T09:39:39;94718.84;;;3.06;100.00
21588;BME280;10956;48.878;13.316;2022-12-20T09:42:08;94719.44;;;3.08;100.00
21588;BME280;10956;48.878;13.316;2022-12-20T09:44:37;94716.03;;;3.08;100.00
21588;BME280;10956;48.878;13.316;2022-12-20T09:47:07;94717.47;;;3.04;100.00
21588;BME280;10956;48.878;13.316;2022-12-20T09:49:39;94704.44;;;3.04;100.00
21588;BME280;10956;48.878;13.316;2022-12-20T09:55:30;94716.28;;;3.00;100.00
21588;BME280;10956;48.878;13.316;2022-12-20T10:01:15;94713.91;;;2.91;100.00
21588;BME280;10956;48.878;13.316;2022-12-20T10:03:41;94711.13;;;2.86;100.00
21588;BME280;10956;48.878;13.316;2022-12-20T10:08:44;94709.13;;;2.82;100.00
21588;BME280;10956;48.878;13.316;2022-12-20T10:14:34;94710.16;;;2.74;100.00
21588;BME280;10956;48.878;13.316;2022-12-20T10:17:00;94694.16;;;2.64;100.00
21588;BME280;10956;48.878;13.316;2022-12-20T10:19:53;94683.56;;;2.59;100.00
21588;BME280;10956;48.878;13.316;2022-12-20T10:22:29;94679.97;;;2.60;100.00
21588;BME280;10956;48.878;13.316;2022-12-20T10:25:15;94686.34;;;2.64;100.00
21588;BME280;10956;48.878;13.316;2022-12-20T10:27:42;94680.38;;;2.57;100.00
21588;BME280;10956;48.878;13.316;2022-12-20T10:30:17;94672.75;;;2.62;100.00
21588;BME280;10956;48.878;13.316;2022-12-20T10:32:45;94665.69;;;2.76;100.00
21588;BME280;10956;48.878;13.316;2022-12-20T10:38:02;94668.94;;;3.16;100.00
21588;BME280;10956;48.878;13.316;2022-12-20T10:40:31;94671.25;;;3.31;100.00
21588;BME280;10956;48.878;13.316;2022-12-20T10:42:57;94671.59;;;3.41;100.00
21588;BME280;10956;48.878;13.316;2022-12-20T10:48:02;94660.31;;;3.53;100.00
21588;BME280;10956;48.878;13.316;2022-12-20T10:50:27;94649.03;;;3.60;100.00
21588;BME280;10956;48.878;13.316;2022-12-20T10:55:39;94645.22;;;3.87;100.00
21588;BME280;10956;48.878;13.316;2022-12-20T11:00:37;94645.13;;;4.00;100.00
21588;BME280;10956;48.878;13.316;2022-12-20T11:03:17;94635.09;;;3.97;100.00
21588;BME280;10956;48.878;13.316;2022-12-20T11:06:02;94641.91;;;3.98;100.00
21588;BME280;10956;48.878;13.316;2022-12-20T11:08:30;94634.75;;;3.94;100.00
21588;BME280;10956;48.878;13.316;2022-12-20T11:11:16;94635.81;;;3.86;100.00
21588;BME280;10956;48.878;13.316;2022-12-20T11:13:44;94622.19;;;3.84;100.00
21588;BME280;10956;48.878;13.316;2022-12-20T11:16:28;94622.78;;;3.86;100.00
21588;BME280;10956;48.878;13.316;2022-12-20T11:19:05;94614.31;;;3.91;100.00
21588;BME280;10956;48.878;13.316;2022-12-20T11:21:51;94612.66;;;3.96;100.00
21588;BME280;10956;48.878;13.316;2022-12-20T11:27:12;94590.50;;;4.05;100.00
21588;BME280;10956;48.878;13.316;2022-12-20T11:29:59;94584.84;;;4.08;100.00
21588;BME280;10956;48.878;13.316;2022-12-20T11:32:38;94591.66;;;4.09;100.00
21588;BME280;10956;48.878;13.316;2022-12-20T11:38:38;94594.66;;;4.13;100.00
21588;BME280;10956;48.878;13.316;2022-12-20T11:41:26;94591.66;;;4.09;100.00
21588;BME280;10956;48.878;13.316;2022-12-20T11:46:53;94594.78;;;4.00;100.00
21588;BME280;10956;48.878;13.316;2022-12-20T11:57:56;94591.16;;;3.51;100.00
21588;BME280;10956;48.878;13.316;2022-12-20T12:00:24;94589.88;;;3.35;100.00
21588;BME280;10956;48.878;13.316;2022-12-20T12:02:58;94587.53;;;3.27;100.00
21588;BME280;10956;48.878;13.316;2022-12-20T12:05:49;94587.78;;;3.19;100.00
21588;BME280;10956;48.878;13.316;2022-12-20T12:11:21;94576.06;;;3.03;100.00
21588;BME280;10956;48.878;13.316;2022-12-20T12:13:49;94579.00;;;3.13;100.00
21588;BME280;10956;48.878;13.316;2022-12-20T12:16:33;94565.53;;;3.23;100.00
21588;BME280;10956;48.878;13.316;2022-12-20T12:19:00;94570.06;;;3.34;100.00
21588;BME280;10956;48.878;13.316;2022-12-20T12:21:37;94567.34;;;3.47;100.00
21588;BME280;10956;48.878;13.316;2022-12-20T12:26:37;94549.69;;;3.49;100.00
21588;BME280;10956;48.878;13.316;2022-12-20T12:47:46;94520.50;;;3.84;100.00
21588;BME280;10956;48.878;13.316;2022-12-20T12:50:24;94514.88;;;3.87;100.00
21588;BME280;10956;48.878;13.316;2022-12-20T12:52:53;94513.28;;;3.86;100.00
21588;BME280;10956;48.878;13.316;2022-12-20T12:55:50;94508.34;;;3.96;100.00
21588;BME280;10956;48.878;13.316;2022-12-20T13:03:14;94518.34;;;3.99;100.00
21588;BME280;10956;48.878;13.316;2022-12-20T13:05:41;94519.50;;;4.03;100.00
21588;BME280;10956;48.878;13.316;2022-12-20T13:08:15;94519.16;;;4.00;100.00
21588;BME280;10956;48.878;13.316;2022-12-20T13:13:21;94513.78;;;3.95;100.00
21588;BME280;10956;48.878;13.316;2022-12-20T13:15:50;94523.41;;;3.94;100.00
21588;BME280;10956;48.878;13.316;2022-12-20T13:18:21;94522.41;;;3.95;100.00
21588;BME280;10956;48.878;13.316;2022-12-20T13:26:56;94518.78;;;3.78;100.00
21588;BME280;10956;48.878;13.316;2022-12-20T13:40:42;94496.56;;;3.50;100.00
21588;BME280;10956;48.878;13.316;2022-12-20T13:48:19;94487.53;;;3.53;100.00
21588;BME280;10956;48.878;13.316;2022-12-20T13:50:51;94477.47;;;3.56;100.00
21588;BME280;10956;48.878;13.316;2022-12-20T13:53:20;94480.66;;;3.59;100.00
21588;BME280;10956;48.878;13.316;2022-12-20T13:55:46;94479.06;;;3.58;100.00
21588;BME280;10956;48.878;13.316;2022-12-20T13:58:26;94481.81;;;3.63;100.00
21588;BME280;10956;48.878;13.316;2022-12-20T14:00:53;94474.59;;;3.65;100.00
21588;BME280;10956;48.878;13.316;2022-12-20T14:03:27;94463.28;;;3.71;100.00
21588;BME280;10956;48.878;13.316;2022-12-20T14:06:02;94467.34;;;3.67;100.00
21588;BME280;10956;48.878;13.316;2022-12-20T14:08:31;94479.66;;;3.60;100.00
21588;BME280;10956;48.878;13.316;2022-12-20T14:11:11;94486.84;;;3.39;100.00
21588;BME280;10956;48.878;13.316;2022-12-20T14:13:37;94482.28;;;3.35;100.00
21588;BME280;10956;48.878;13.316;2022-12-20T14:16:14;94473.25;;;3.37;100.00
21588;BME280;10956;48.878;13.316;2022-12-20T14:18:40;94469.56;;;3.45;100.00
21588;BME280;10956;48.878;13.316;2022-12-20T14:21:06;94464.72;;;3.48;100.00
21588;BME280;10956;48.878;13.316;2022-12-20T14:23:37;94466.31;;;3.49;100.00
21588;BME280;10956;48.878;13.316;2022-12-20T14:26:06;94457.91;;;3.47;100.00
21588;BME280;10956;48.878;13.316;2022-12-20T14:28:40;94462.53;;;3.45;100.00
21588;BME280;10956;48.878;13.316;2022-12-20T14:31:23;94470.34;;;3.45;100.00
21588;BME280;10956;48.878;13.316;2022-12-20T14:33:50;94467.59;;;3.40;100.00
21588;BME280;10956;48.878;13.316;2022-12-20T14:36:17;94473.09;;;3.32;100.00
21588;BME280;10956;48.878;13.316;2022-12-20T14:38:50;94469.16;;;3.23;100.00
21588;BME280;10956;48.878;13.316;2022-12-20T14:41:36;94477.25;;;3.15;100.00
21588;BME280;10956;48.878;13.316;2022-12-20T14:46:31;94471.53;;;3.00;100.00
21588;BME280;10956;48.878;13.316;2022-12-20T14:51:44;94476.44;;;2.89;100.00
21588;BME280;10956;48.878;13.316;2022-12-20T14:54:16;94468.44;;;2.84;100.00